sensor_id;sensor_type;location;lat;lon;timestamp;pressure;altitude;pressure_sealevel;temperature;humidity
65019;BME280;66069;51.164;-114.452;2024-03-25T00:00:25;87498.00;;;15.71;46.13
65019;BME280;66069;51.164;-114.452;2024-03-25T00:02:54;87499.50;;;15.72;46.21
65019;BME280;66069;51.164;-114.452;2024-03-25T00:05:20;87484.13;;;15.63;46.05
65019;BME280;66069;51.164;-114.452;2024-03-25T00:07:52;87475.84;;;15.61;46.14
65019;BME280;66069;51.164;-114.452;2024-03-25T00:10:18;87494.66;;;15.67;46.27
65019;BME280;66069;51.164;-114.452;2024-03-25T00:12:47;87499.59;;;15.65;46.03
65019;BME280;66069;51.164;-114.452;2024-03-25T00:15:18;87503.75;;;15.66;46.10
65019;BME280;66069;51.164;-114.452;2024-03-25T00:17:48;87496.22;;;15.60;46.04
65019;BME280;66069;51.164;-114.452;2024-03-25T00:20:14;87510.94;;;15.65;46.08
65019;BME280;66069;51.164;-114.452;2024-03-25T00:22:41;87518.09;;;15.65;46.00
65019;BME280;66069;51.164;-114.452;2024-03-25T00:25:08;87504.91;;;15.61;46.03
65019;BME280;66069;51.164;-114.452;2024-03-25T00:27:35;87513.19;;;15.63;46.06
65019;BME280;66069;51.164;-114.452;2024-03-25T00:30:01;87505.31;;;15.59;45.94
65019;BME280;66069;51.164;-114.452;2024-03-25T00:32:27;87504.19;;;15.57;46.20
65019;BME280;66069;51.164;-114.452;2024-03-25T00:34:53;87497.44;;;15.52;46.23
65019;BME280;66069;51.164;-114.452;2024-03-25T00:37:20;87495.53;;;15.56;46.07
65019;BME280;66069;51.164;-114.452;2024-03-25T00:39:46;87487.66;;;15.53;46.01
65019;BME280;66069;51.164;-114.452;2024-03-25T00:42:12;87501.16;;;15.58;46.06
65019;BME280;66069;51.164;-114.452;2024-03-25T00:44:38;87502.28;;;15.57;45.93
65019;BME280;66069;51.164;-114.452;2024-03-25T00:47:04;87499.66;;;15.57;46.15
65019;BME280;66069;51.164;-114.452;2024-03-25T00:49:31;87512.13;;;15.57;46.04
65019;BME280;66069;51.164;-114.452;2024-03-25T00:51:57;87508.00;;;15.56;46.01
65019;BME280;66069;51.164;-114.452;2024-03-25T00:54:23;87508.00;;;15.56;46.36
65019;BME280;66069;51.164;-114.452;2024-03-25T00:56:49;87503.53;;;15.49;46.26
65019;BME280;66069;51.164;-114.452;2024-03-25T00:59:17;87511.78;;;15.55;45.98
65019;BME280;66069;51.164;-114.452;2024-03-25T01:01:43;87503.53;;;15.49;46.18
65019;BME280;66069;51.164;-114.452;2024-03-25T01:04:09;87501.69;;;15.46;46.17
65019;BME280;66069;51.164;-114.452;2024-03-25T01:06:36;87501.25;;;15.51;46.04
65019;BME280;66069;51.164;-114.452;2024-03-25T01:09:02;87508.06;;;15.49;45.99
65019;BME280;66069;51.164;-114.452;2024-03-25T01:11:30;87500.50;;;15.51;46.12
65019;BME280;66069;51.164;-114.452;2024-03-25T01:13:56;87503.13;;;15.51;46.10
65019;BME280;66069;51.164;-114.452;2024-03-25T01:16:22;87481.84;;;15.34;45.96
65019;BME280;66069;51.164;-114.452;2024-03-25T01:18:49;87510.72;;;15.49;46.31
65019;BME280;66069;51.164;-114.452;2024-03-25T01:21:15;87511.47;;;15.49;46.27
65019;BME280;66069;51.164;-114.452;2024-03-25T01:23:41;87509.59;;;15.46;46.15
65019;BME280;66069;51.164;-114.452;2024-03-25T01:26:07;87511.50;;;15.46;46.02
65019;BME280;66069;51.164;-114.452;2024-03-25T01:28:33;87506.22;;;15.46;46.05
65019;BME280;66069;51.164;-114.452;2024-03-25T01:31:00;87505.53;;;15.42;46.12
65019;BME280;66069;51.164;-114.452;2024-03-25T01:33:26;87508.91;;;15.42;45.84
65019;BME280;66069;51.164;-114.452;2024-03-25T01:35:52;87517.59;;;15.43;45.94
65019;BME280;66069;51.164;-114.452;2024-03-25T01:38:21;87510.06;;;15.41;46.17
65019;BME280;66069;51.164;-114.452;2024-03-25T01:40:48;87507.81;;;15.40;45.75
65019;BME280;66069;51.164;-114.452;2024-03-25T01:43:14;87508.22;;;15.38;46.06
65019;BME280;66069;51.164;-114.452;2024-03-25T01:45:42;87512.34;;;15.39;46.05
65019;BME280;66069;51.164;-114.452;2024-03-25T01:48:08;87504.09;;;15.33;45.97
65019;BME280;66069;51.164;-114.452;2024-03-25T01:50:41;87507.47;;;15.38;45.96
65019;BME280;66069;51.164;-114.452;2024-03-25T01:53:08;87503.75;;;15.31;45.93
65019;BME280;66069;51.164;-114.452;2024-03-25T01:55:37;87511.28;;;15.33;45.95
65019;BME280;66069;51.164;-114.452;2024-03-25T01:58:05;87513.19;;;15.32;46.04
65019;BME280;66069;51.164;-114.452;2024-03-25T02:00:32;87511.69;;;15.31;45.85
65019;BME280;66069;51.164;-114.452;2024-03-25T02:02:59;87516.97;;;15.31;45.89
65019;BME280;66069;51.164;-114.452;2024-03-25T02:05:25;87520.75;;;15.30;45.94
65019;BME280;66069;51.164;-114.452;2024-03-25T02:07:52;87512.88;;;15.27;45.96
65019;BME280;66069;51.164;-114.452;2024-03-25T02:10:19;87522.25;;;15.31;46.20
65019;BME280;66069;51.164;-114.452;2024-03-25T02:12:46;87516.22;;;15.31;46.88
65019;BME280;66069;51.164;-114.452;2024-03-25T02:15:13;87523.00;;;15.32;47.35
65019;BME280;66069;51.164;-114.452;2024-03-25T02:17:39;87509.09;;;15.28;47.47
65019;BME280;66069;51.164;-114.452;2024-03-25T02:20:06;87524.84;;;15.35;47.80
65019;BME280;66069;51.164;-114.452;2024-03-25T02:22:35;87526.34;;;15.36;48.28
65019;BME280;66069;51.164;-114.452;2024-03-25T02:25:08;87526.69;;;15.38;48.27
65019;BME280;66069;51.164;-114.452;2024-03-25T02:27:35;87509.38;;;15.33;48.85
65019;BME280;66069;51.164;-114.452;2024-03-25T02:30:08;87525.19;;;15.41;48.86
65019;BME280;66069;51.164;-114.452;2024-03-25T02:32:35;87517.25;;;15.41;48.86
65019;BME280;66069;51.164;-114.452;2024-03-25T02:35:04;87521.75;;;15.40;48.62
65019;BME280;66069;51.164;-114.452;2024-03-25T02:37:32;87514.19;;;15.42;48.87
65019;BME280;66069;51.164;-114.452;2024-03-25T02:39:59;87504.41;;;15.39;48.43
65019;BME280;66069;51.164;-114.452;2024-03-25T02:42:27;87512.72;;;15.41;48.63
65019;BME280;66069;51.164;-114.452;2024-03-25T02:44:57;87516.09;;;15.42;48.30
65019;BME280;66069;51.164;-114.452;2024-03-25T02:47:23;87511.19;;;15.40;48.37
65019;BME280;66069;51.164;-114.452;2024-03-25T02:49:50;87510.81;;;15.42;48.46
65019;BME280;66069;51.164;-114.452;2024-03-25T02:52:17;87513.06;;;15.43;48.23
65019;BME280;66069;51.164;-114.452;2024-03-25T02:54:43;87507.81;;;15.40;48.21
65019;BME280;66069;51.164;-114.452;2024-03-25T02:57:10;87508.91;;;15.42;48.11
65019;BME280;66069;51.164;-114.452;2024-03-25T02:59:36;87479.69;;;15.26;48.22
65019;BME280;66069;51.164;-114.452;2024-03-25T03:02:02;87508.91;;;15.42;48.47
65019;BME280;66069;51.164;-114.452;2024-03-25T03:04:28;87507.47;;;15.38;48.56
65019;BME280;66069;51.164;-114.452;2024-03-25T03:06:55;87511.16;;;15.44;48.60
65019;BME280;66069;51.164;-114.452;2024-03-25T03:09:21;87521.72;;;15.44;48.66
65019;BME280;66069;51.164;-114.452;2024-03-25T03:11:47;87505.91;;;15.40;49.34
65019;BME280;66069;51.164;-114.452;2024-03-25T03:14:14;87510.75;;;15.45;49.06
65019;BME280;66069;51.164;-114.452;2024-03-25T03:16:41;87507.78;;;15.43;49.10
65019;BME280;66069;51.164;-114.452;2024-03-25T03:19:07;87501.41;;;15.41;49.18
65019;BME280;66069;51.164;-114.452;2024-03-25T03:21:33;87509.22;;;15.48;48.94
65019;BME280;66069;51.164;-114.452;2024-03-25T03:23:59;87483.78;;;15.30;48.77
65019;BME280;66069;51.164;-114.452;2024-03-25T03:26:26;87497.34;;;15.32;48.87
65019;BME280;66069;51.164;-114.452;2024-03-25T03:28:53;87506.22;;;15.46;48.84
65019;BME280;66069;51.164;-114.452;2024-03-25T03:31:20;87508.19;;;15.42;48.89
65019;BME280;66069;51.164;-114.452;2024-03-25T03:33:49;87503.19;;;15.47;48.70
65019;BME280;66069;51.164;-114.452;2024-03-25T03:36:17;87507.75;;;15.47;48.97
65019;BME280;66069;51.164;-114.452;2024-03-25T03:38:43;87505.44;;;15.49;49.30
65019;BME280;66069;51.164;-114.452;2024-03-25T03:41:10;87505.03;;;15.50;49.23
65019;BME280;66069;51.164;-114.452;2024-03-25T03:43:36;87499.00;;;15.50;49.45
65019;BME280;66069;51.164;-114.452;2024-03-25T03:46:03;87500.50;;;15.51;49.69
65019;BME280;66069;51.164;-114.452;2024-03-25T03:48:30;87506.94;;;15.50;49.74
65019;BME280;66069;51.164;-114.452;2024-03-25T03:50:56;87490.00;;;15.47;49.74
65019;BME280;66069;51.164;-114.452;2024-03-25T03:53:22;87504.25;;;15.53;49.66
65019;BME280;66069;51.164;-114.452;2024-03-25T03:55:58;87499.75;;;15.50;49.56
65019;BME280;66069;51.164;-114.452;2024-03-25T03:58:25;87509.53;;;15.53;49.44
65019;BME280;66069;51.164;-114.452;2024-03-25T04:00:51;87502.72;;;15.52;49.35
65019;BME280;66069;51.164;-114.452;2024-03-25T04:03:20;87492.63;;;15.47;49.39
65019;BME280;66069;51.164;-114.452;2024-03-25T04:05:47;87508.78;;;15.53;49.14
65019;BME280;66069;51.164;-114.452;2024-03-25T04:08:13;87502.00;;;15.52;49.32
65019;BME280;66069;51.164;-114.452;2024-03-25T04:10:39;87499.03;;;15.46;49.25
65019;BME280;66069;51.164;-114.452;2024-03-25T04:13:07;87502.72;;;15.52;49.13
65019;BME280;66069;51.164;-114.452;2024-03-25T04:15:36;87498.66;;;15.48;49.05
65019;BME280;66069;51.164;-114.452;2024-03-25T04:18:03;87499.00;;;15.50;48.91
65019;BME280;66069;51.164;-114.452;2024-03-25T04:20:39;87512.56;;;15.52;48.72
65019;BME280;66069;51.164;-114.452;2024-03-25T04:23:06;87498.66;;;15.48;48.91
65019;BME280;66069;51.164;-114.452;2024-03-25T04:25:36;87501.31;;;15.48;48.79
65019;BME280;66069;51.164;-114.452;2024-03-25T04:28:06;87502.41;;;15.50;48.66
65019;BME280;66069;51.164;-114.452;2024-03-25T04:30:32;87496.75;;;15.48;48.52
65019;BME280;66069;51.164;-114.452;2024-03-25T04:32:59;87496.03;;;15.48;48.79
65019;BME280;66069;51.164;-114.452;2024-03-25T04:35:26;87503.94;;;15.48;48.61
65019;BME280;66069;51.164;-114.452;2024-03-25T04:37:52;87496.47;;;15.43;48.88
65019;BME280;66069;51.164;-114.452;2024-03-25T04:40:18;87489.38;;;15.36;48.57
65019;BME280;66069;51.164;-114.452;2024-03-25T04:42:45;87494.53;;;15.47;48.75
65019;BME280;66069;51.164;-114.452;2024-03-25T04:45:12;87493.75;;;15.46;48.39
65019;BME280;66069;51.164;-114.452;2024-03-25T04:47:39;87481.75;;;15.42;48.51
65019;BME280;66069;51.164;-114.452;2024-03-25T04:50:06;87483.59;;;15.45;48.54
65019;BME280;66069;51.164;-114.452;2024-03-25T04:52:32;87482.50;;;15.42;48.46
65019;BME280;66069;51.164;-114.452;2024-03-25T04:54:58;87486.97;;;15.45;48.52
65019;BME280;66069;51.164;-114.452;2024-03-25T04:57:25;87481.34;;;15.43;48.37
65019;BME280;66069;51.164;-114.452;2024-03-25T04:59:51;87472.34;;;15.41;48.34
65019;BME280;66069;51.164;-114.452;2024-03-25T05:02:17;87485.88;;;15.43;48.52
65019;BME280;66069;51.164;-114.452;2024-03-25T05:04:43;87473.13;;;15.38;48.19
65019;BME280;66069;51.164;-114.452;2024-03-25T05:07:09;87455.13;;;15.29;48.12
65019;BME280;66069;51.164;-114.452;2024-03-25T05:09:36;87465.53;;;15.40;48.44
65019;BME280;66069;51.164;-114.452;2024-03-25T05:12:02;87469.31;;;15.39;48.48
65019;BME280;66069;51.164;-114.452;2024-03-25T05:14:30;87465.19;;;15.38;48.13
65019;BME280;66069;51.164;-114.452;2024-03-25T05:16:56;87471.22;;;15.38;48.22
65019;BME280;66069;51.164;-114.452;2024-03-25T05:19:22;87452.13;;;15.27;48.26
65019;BME280;66069;51.164;-114.452;2024-03-25T05:21:49;87463.72;;;15.33;48.20
65019;BME280;66069;51.164;-114.452;2024-03-25T05:24:15;87440.13;;;15.22;48.32
65019;BME280;66069;51.164;-114.452;2024-03-25T05:26:41;87460.72;;;15.34;48.32
65019;BME280;66069;51.164;-114.452;2024-03-25T05:29:07;87459.94;;;15.34;48.09
65019;BME280;66069;51.164;-114.452;2024-03-25T05:31:34;87452.88;;;15.27;48.15
65019;BME280;66069;51.164;-114.452;2024-03-25T05:34:00;87447.59;;;15.27;48.26
65019;BME280;66069;51.164;-114.452;2024-03-25T05:36:28;87452.44;;;15.32;48.01
65019;BME280;66069;51.164;-114.452;2024-03-25T05:38:54;87417.56;;;15.14;48.35
65019;BME280;66069;51.164;-114.452;2024-03-25T05:41:22;87446.06;;;15.30;48.19
65019;BME280;66069;51.164;-114.452;2024-03-25T05:43:48;87453.22;;;15.29;48.13
65019;BME280;66069;51.164;-114.452;2024-03-25T05:46:15;87443.81;;;15.28;47.96
65019;BME280;66069;51.164;-114.452;2024-03-25T05:48:41;87437.44;;;15.26;48.13
65019;BME280;66069;51.164;-114.452;2024-03-25T05:51:07;87437.44;;;15.26;48.18
65019;BME280;66069;51.164;-114.452;2024-03-25T05:53:33;87429.94;;;15.21;48.05
65019;BME280;66069;51.164;-114.452;2024-03-25T05:56:00;87433.69;;;15.23;47.88
65019;BME280;66069;51.164;-114.452;2024-03-25T05:58:26;87431.81;;;15.24;47.87
65019;BME280;66069;51.164;-114.452;2024-03-25T06:00:53;87433.72;;;15.20;48.05
65019;BME280;66069;51.164;-114.452;2024-03-25T06:03:19;87430.31;;;15.23;47.86
65019;BME280;66069;51.164;-114.452;2024-03-25T06:05:46;87434.84;;;15.22;47.89
65019;BME280;66069;51.164;-114.452;2024-03-25T06:08:13;87429.19;;;15.20;47.88
65019;BME280;66069;51.164;-114.452;2024-03-25T06:10:51;87426.22;;;15.18;47.99
65019;BME280;66069;51.164;-114.452;2024-03-25T06:13:18;87410.16;;;15.05;47.89
65019;BME280;66069;51.164;-114.452;2024-03-25T06:15:45;87426.97;;;15.19;47.89
65019;BME280;66069;51.164;-114.452;2024-03-25T06:18:13;87425.13;;;15.16;48.04
65019;BME280;66069;51.164;-114.452;2024-03-25T06:20:40;87431.91;;;15.17;48.04
65019;BME280;66069;51.164;-114.452;2024-03-25T06:23:07;87424.34;;;15.15;48.17
65019;BME280;66069;51.164;-114.452;2024-03-25T06:25:33;87427.00;;;15.15;47.77
65019;BME280;66069;51.164;-114.452;2024-03-25T06:28:01;87420.22;;;15.14;47.73
65019;BME280;66069;51.164;-114.452;2024-03-25T06:30:27;87413.09;;;15.11;47.78
65019;BME280;66069;51.164;-114.452;2024-03-25T06:33:11;87403.75;;;15.03;47.62
65019;BME280;66069;51.164;-114.452;2024-03-25T06:35:56;87413.56;;;15.02;47.77
65019;BME280;66069;51.164;-114.452;2024-03-25T06:38:22;87408.59;;;15.08;47.90
65019;BME280;66069;51.164;-114.452;2024-03-25T06:40:48;87408.22;;;15.10;47.73
65019;BME280;66069;51.164;-114.452;2024-03-25T06:43:17;87402.56;;;15.07;47.61
65019;BME280;66069;51.164;-114.452;2024-03-25T06:45:44;87399.59;;;15.05;47.81
65019;BME280;66069;51.164;-114.452;2024-03-25T06:48:10;87378.66;;;14.91;47.91
65019;BME280;66069;51.164;-114.452;2024-03-25T06:50:36;87397.69;;;15.06;47.67
65019;BME280;66069;51.164;-114.452;2024-03-25T06:53:03;87388.72;;;15.00;47.53
65019;BME280;66069;51.164;-114.452;2024-03-25T06:55:29;87390.19;;;15.04;47.86
65019;BME280;66069;51.164;-114.452;2024-03-25T06:57:55;87392.06;;;15.04;47.47
65019;BME280;66069;51.164;-114.452;2024-03-25T07:00:21;87387.19;;;15.02;47.61
65019;BME280;66069;51.164;-114.452;2024-03-25T07:02:48;87384.53;;;15.02;47.78
65019;BME280;66069;51.164;-114.452;2024-03-25T07:05:14;87384.19;;;15.00;47.99
65019;BME280;66069;51.164;-114.452;2024-03-25T07:07:41;87382.69;;;14.99;47.70
65019;BME280;66069;51.164;-114.452;2024-03-25T07:10:07;87375.56;;;14.96;47.61
65019;BME280;66069;51.164;-114.452;2024-03-25T07:12:33;87376.72;;;14.95;47.63
65019;BME280;66069;51.164;-114.452;2024-03-25T07:15:00;87379.72;;;14.97;47.66
65019;BME280;66069;51.164;-114.452;2024-03-25T07:17:26;87380.84;;;14.96;47.50
65019;BME280;66069;51.164;-114.452;2024-03-25T07:19:52;87376.81;;;14.88;47.49
65019;BME280;66069;51.164;-114.452;2024-03-25T07:22:18;87379.00;;;14.93;47.66
65019;BME280;66069;51.164;-114.452;2024-03-25T07:24:45;87379.03;;;14.90;47.56
65019;BME280;66069;51.164;-114.452;2024-03-25T07:27:11;87377.53;;;14.92;47.40
65019;BME280;66069;51.164;-114.452;2024-03-25T07:29:38;87373.03;;;14.89;47.52
65019;BME280;66069;51.164;-114.452;2024-03-25T07:32:04;87374.91;;;14.89;47.56
65019;BME280;66069;51.164;-114.452;2024-03-25T07:34:30;87371.13;;;14.90;47.55
65019;BME280;66069;51.164;-114.452;2024-03-25T07:36:57;87362.16;;;14.84;47.59
65019;BME280;66069;51.164;-114.452;2024-03-25T07:39:23;87372.69;;;14.87;47.45
65019;BME280;66069;51.164;-114.452;2024-03-25T07:41:50;87365.91;;;14.86;47.69
65019;BME280;66069;51.164;-114.452;2024-03-25T07:44:16;87361.78;;;14.85;47.55
65019;BME280;66069;51.164;-114.452;2024-03-25T07:46:42;87360.66;;;14.82;47.44
65019;BME280;66069;51.164;-114.452;2024-03-25T07:49:08;87360.31;;;14.80;47.61
65019;BME280;66069;51.164;-114.452;2024-03-25T07:51:34;87359.91;;;14.82;47.35
65019;BME280;66069;51.164;-114.452;2024-03-25T07:54:01;87359.97;;;14.78;47.57
65019;BME280;66069;51.164;-114.452;2024-03-25T07:56:29;87361.09;;;14.77;47.67
65019;BME280;66069;51.164;-114.452;2024-03-25T07:58:58;87365.59;;;14.80;47.44
65019;BME280;66069;51.164;-114.452;2024-03-25T08:01:25;87355.81;;;14.77;47.32
65019;BME280;66069;51.164;-114.452;2024-03-25T08:03:51;87356.56;;;14.78;47.49
65019;BME280;66069;51.164;-114.452;2024-03-25T08:06:18;87352.09;;;14.75;47.50
65019;BME280;66069;51.164;-114.452;2024-03-25T08:08:47;87349.13;;;14.73;47.53
65019;BME280;66069;51.164;-114.452;2024-03-25T08:11:13;87353.25;;;14.74;47.51
65019;BME280;66069;51.164;-114.452;2024-03-25T08:13:39;87349.16;;;14.69;47.41
65019;BME280;66069;51.164;-114.452;2024-03-25T08:16:06;87356.66;;;14.71;47.28
65019;BME280;66069;51.164;-114.452;2024-03-25T08:18:32;87354.06;;;14.67;47.02
65019;BME280;66069;51.164;-114.452;2024-03-25T08:20:58;87358.56;;;14.70;47.36
65019;BME280;66069;51.164;-114.452;2024-03-25T08:23:25;87352.53;;;14.70;47.33
65019;BME280;66069;51.164;-114.452;2024-03-25T08:25:51;87352.94;;;14.68;47.13
65019;BME280;66069;51.164;-114.452;2024-03-25T08:28:17;87352.59;;;14.66;47.32
65019;BME280;66069;51.164;-114.452;2024-03-25T08:30:43;87355.22;;;14.66;47.34
65019;BME280;66069;51.164;-114.452;2024-03-25T08:33:09;87351.53;;;14.60;47.12
65019;BME280;66069;51.164;-114.452;2024-03-25T08:35:37;87364.66;;;14.64;47.25
65019;BME280;66069;51.164;-114.452;2024-03-25T08:38:04;87346.69;;;14.55;47.17
65019;BME280;66069;51.164;-114.452;2024-03-25T08:40:30;87358.66;;;14.63;46.95
65019;BME280;66069;51.164;-114.452;2024-03-25T08:42:56;87358.66;;;14.63;47.15
65019;BME280;66069;51.164;-114.452;2024-03-25T08:45:22;87345.84;;;14.62;47.01
65019;BME280;66069;51.164;-114.452;2024-03-25T08:47:48;87350.78;;;14.60;47.24
65019;BME280;66069;51.164;-114.452;2024-03-25T08:50:14;87348.16;;;14.60;47.05
65019;BME280;66069;51.164;-114.452;2024-03-25T08:52:41;87337.66;;;14.52;47.03
65019;BME280;66069;51.164;-114.452;2024-03-25T08:55:07;87316.28;;;14.43;47.01
65019;BME280;66069;51.164;-114.452;2024-03-25T08:57:33;87335.72;;;14.57;47.10
65019;BME280;66069;51.164;-114.452;2024-03-25T09:00:00;87325.22;;;14.53;47.19
65019;BME280;66069;51.164;-114.452;2024-03-25T09:02:26;87329.38;;;14.54;47.05
65019;BME280;66069;51.164;-114.452;2024-03-25T09:04:52;87326.00;;;14.53;47.20
65019;BME280;66069;51.164;-114.452;2024-03-25T09:07:18;87330.56;;;14.49;47.15
65019;BME280;66069;51.164;-114.452;2024-03-25T09:09:44;87326.41;;;14.48;46.87
65019;BME280;66069;51.164;-114.452;2024-03-25T09:12:28;87326.03;;;14.50;46.97
65019;BME280;66069;51.164;-114.452;2024-03-25T09:14:55;87325.28;;;14.49;47.24
65019;BME280;66069;51.164;-114.452;2024-03-25T09:17:21;87292.00;;;14.25;46.96
65019;BME280;66069;51.164;-114.452;2024-03-25T09:19:48;87318.88;;;14.47;47.24
65019;BME280;66069;51.164;-114.452;2024-03-25T09:22:15;87308.41;;;14.40;46.99
65019;BME280;66069;51.164;-114.452;2024-03-25T09:24:41;87311.03;;;14.40;46.97
65019;BME280;66069;51.164;-114.452;2024-03-25T09:27:07;87319.66;;;14.44;47.12
65019;BME280;66069;51.164;-114.452;2024-03-25T09:29:33;87319.66;;;14.44;46.79
65019;BME280;66069;51.164;-114.452;2024-03-25T09:31:59;87320.84;;;14.39;47.17
65019;BME280;66069;51.164;-114.452;2024-03-25T09:34:25;87323.06;;;14.41;46.83
65019;BME280;66069;51.164;-114.452;2024-03-25T09:36:51;87315.22;;;14.37;46.80
65019;BME280;66069;51.164;-114.452;2024-03-25T09:39:18;87313.72;;;14.36;46.92
65019;BME280;66069;51.164;-114.452;2024-03-25T09:41:46;87309.53;;;14.39;46.91
65019;BME280;66069;51.164;-114.452;2024-03-25T09:44:14;87305.81;;;14.36;46.68
65019;BME280;66069;51.164;-114.452;2024-03-25T09:46:40;87285.94;;;14.28;46.70
65019;BME280;66069;51.164;-114.452;2024-03-25T09:49:07;87297.53;;;14.34;46.71
65019;BME280;66069;51.164;-114.452;2024-03-25T09:51:33;87305.06;;;14.36;47.17
65019;BME280;66069;51.164;-114.452;2024-03-25T09:53:59;87300.97;;;14.31;46.87
65019;BME280;66069;51.164;-114.452;2024-03-25T09:56:26;87292.34;;;14.27;46.98
65019;BME280;66069;51.164;-114.452;2024-03-25T09:58:52;87294.56;;;14.32;46.73
65019;BME280;66069;51.164;-114.452;2024-03-25T10:01:19;87297.59;;;14.31;46.92
65019;BME280;66069;51.164;-114.452;2024-03-25T10:03:45;87294.97;;;14.31;47.11
65019;BME280;66069;51.164;-114.452;2024-03-25T10:06:11;87278.06;;;14.24;46.96
65019;BME280;66069;51.164;-114.452;2024-03-25T10:08:38;87281.78;;;14.31;46.68
65019;BME280;66069;51.164;-114.452;2024-03-25T10:11:05;87282.84;;;14.33;47.01
65019;BME280;66069;51.164;-114.452;2024-03-25T10:13:31;87276.44;;;14.34;47.14
65019;BME280;66069;51.164;-114.452;2024-03-25T10:15:57;87282.81;;;14.37;47.15
65019;BME280;66069;51.164;-114.452;2024-03-25T10:18:24;87277.16;;;14.38;46.84
65019;BME280;66069;51.164;-114.452;2024-03-25T10:20:51;87273.72;;;14.41;47.31
65019;BME280;66069;51.164;-114.452;2024-03-25T10:23:21;87280.84;;;14.44;47.19
65019;BME280;66069;51.164;-114.452;2024-03-25T10:25:48;87289.84;;;14.50;47.31
65019;BME280;66069;51.164;-114.452;2024-03-25T10:28:14;87262.75;;;14.46;47.29
65019;BME280;66069;51.164;-114.452;2024-03-25T10:30:41;87280.69;;;14.59;47.39
65019;BME280;66069;51.164;-114.452;2024-03-25T10:33:08;87277.19;;;14.65;47.92
65019;BME280;66069;51.164;-114.452;2024-03-25T10:35:36;87280.53;;;14.69;47.74
65019;BME280;66069;51.164;-114.452;2024-03-25T10:38:04;87286.53;;;14.73;47.69
65019;BME280;66069;51.164;-114.452;2024-03-25T10:40:32;87285.72;;;14.76;47.87
65019;BME280;66069;51.164;-114.452;2024-03-25T10:43:09;87285.69;;;14.80;47.63
65019;BME280;66069;51.164;-114.452;2024-03-25T10:45:49;87285.63;;;14.84;47.58
65019;BME280;66069;51.164;-114.452;2024-03-25T10:48:19;87279.97;;;14.85;47.80
65019;BME280;66069;51.164;-114.452;2024-03-25T10:50:46;87291.94;;;14.90;47.80
65019;BME280;66069;51.164;-114.452;2024-03-25T10:53:14;87283.56;;;14.95;47.94
65019;BME280;66069;51.164;-114.452;2024-03-25T10:55:45;87286.94;;;14.99;47.88
65019;BME280;66069;51.164;-114.452;2024-03-25T10:58:13;87287.59;;;15.03;47.94
65019;BME280;66069;51.164;-114.452;2024-03-25T11:00:42;87287.56;;;15.06;47.76
65019;BME280;66069;51.164;-114.452;2024-03-25T11:03:10;87282.97;;;15.11;48.04
65019;BME280;66069;51.164;-114.452;2024-03-25T11:05:37;87276.88;;;15.14;48.09
65019;BME280;66069;51.164;-114.452;2024-03-25T11:08:14;87279.03;;;15.22;48.10
65019;BME280;66069;51.164;-114.452;2024-03-25T11:10:44;87283.84;;;15.27;48.14
65019;BME280;66069;51.164;-114.452;2024-03-25T11:13:17;87272.81;;;15.32;48.38
65019;BME280;66069;51.164;-114.452;2024-03-25T11:15:45;87274.25;;;15.37;48.29
65019;BME280;66069;51.164;-114.452;2024-03-25T11:18:16;87272.66;;;15.43;48.35
65019;BME280;66069;51.164;-114.452;2024-03-25T11:20:43;87269.28;;;15.43;48.14
65019;BME280;66069;51.164;-114.452;2024-03-25T11:23:13;87270.63;;;15.51;48.43
65019;BME280;66069;51.164;-114.452;2024-03-25T11:25:41;87277.66;;;15.61;48.59
65019;BME280;66069;51.164;-114.452;2024-03-25T11:28:10;87255.78;;;15.60;48.60
65019;BME280;66069;51.164;-114.452;2024-03-25T11:30:37;87254.47;;;15.72;48.54
65019;BME280;66069;51.164;-114.452;2024-03-25T11:33:04;87263.06;;;15.76;48.53
65019;BME280;66069;51.164;-114.452;2024-03-25T11:35:30;87259.94;;;15.81;48.56
65019;BME280;66069;51.164;-114.452;2024-03-25T11:38:02;87265.84;;;15.89;48.61
65019;BME280;66069;51.164;-114.452;2024-03-25T11:40:29;87248.91;;;15.86;48.40
65019;BME280;66069;51.164;-114.452;2024-03-25T11:42:55;87266.00;;;16.02;48.59
65019;BME280;66069;51.164;-114.452;2024-03-25T11:45:21;87263.63;;;16.07;48.47
65019;BME280;66069;51.164;-114.452;2024-03-25T11:47:49;87260.59;;;16.09;48.43
65019;BME280;66069;51.164;-114.452;2024-03-25T11:50:19;87268.41;;;16.16;48.51
65019;BME280;66069;51.164;-114.452;2024-03-25T11:52:46;87265.19;;;16.25;48.47
65019;BME280;66069;51.164;-114.452;2024-03-25T11:55:17;87269.59;;;16.31;48.34
65019;BME280;66069;51.164;-114.452;2024-03-25T11:57:43;87260.44;;;16.36;48.49
65019;BME280;66069;51.164;-114.452;2024-03-25T12:00:10;87258.13;;;16.38;48.54
65019;BME280;66069;51.164;-114.452;2024-03-25T12:02:37;87264.38;;;16.48;48.36
65019;BME280;66069;51.164;-114.452;2024-03-25T12:05:05;87236.69;;;16.32;48.42
65019;BME280;66069;51.164;-114.452;2024-03-25T12:07:33;87254.31;;;16.59;48.41
65019;BME280;66069;51.164;-114.452;2024-03-25T12:10:02;87248.94;;;16.62;48.28
65019;BME280;66069;51.164;-114.452;2024-03-25T12:12:47;87248.78;;;16.69;48.38
65019;BME280;66069;51.164;-114.452;2024-03-25T12:15:13;87247.91;;;16.76;48.40
65019;BME280;66069;51.164;-114.452;2024-03-25T12:17:40;87249.34;;;16.81;48.44
65019;BME280;66069;51.164;-114.452;2024-03-25T12:20:07;87259.78;;;16.88;48.32
65019;BME280;66069;51.164;-114.452;2024-03-25T12:22:35;87260.78;;;16.94;48.39
65019;BME280;66069;51.164;-114.452;2024-03-25T12:25:03;87262.53;;;17.01;48.38
65019;BME280;66069;51.164;-114.452;2024-03-25T12:27:32;87251.75;;;17.08;48.23
65019;BME280;66069;51.164;-114.452;2024-03-25T12:30:05;87258.06;;;17.14;48.18